Time;durP1;ratioP1;P1;durP2;ratioP2;P2;SDS_P1;SDS_P2;PMS_P1;PMS_P2;Temp;Humidity;BMP_temperature;BMP_pressure;BME280_temperature;BME280_humidity;BME280_pressure;Samples;Min_cycle;Max_cycle;Signal;HPM_P1;HPM_P2
2021/10/02 00:46:59;;;;;;;9.70;7.70;;;;;;;;;;4938587;28;20502;-71
2021/10/02 00:49:24;;;;;;;10.30;8.13;;;;;;;;;;4944881;28;20463;-71
2021/10/02 00:51:49;;;;;;;9.37;8.47;;;;;;;;;;4939409;28;20191;-71
2021/10/02 00:54:15;;;;;;;10.40;8.70;;;;;;;;;;4941024;28;20222;-71
2021/10/02 00:56:40;;;;;;;11.70;8.20;;;;;;;;;;4939220;28;20187;-71
2021/10/02 00:59:05;;;;;;;9.83;8.90;;;;;;;;;;4939293;28;20198;-71
2021/10/02 01:01:34;;;;;;;9.13;8.30;;;;;;;;;;4935774;28;20295;-71
2021/10/02 01:04:08;;;;;;;9.60;8.40;;;;;;;;;;4937843;28;20208;-71
2021/10/02 01:06:44;;;;;;;8.77;7.97;;;;;;;;;;4944885;28;20464;-71
2021/10/02 01:09:20;;;;;;;8.97;8.13;;;;;;;;;;4939095;28;20426;-71
2021/10/02 01:11:59;;;;;;;10.27;9.17;;;;;;;;;;4940003;28;20772;-71
2021/10/02 01:14:27;;;;;;;8.07;7.27;;;;;;;;;;4941537;28;20509;-71
2021/10/02 01:16:56;;;;;;;9.27;8.40;;;;;;;;;;4938234;28;20512;-71
2021/10/02 01:19:39;;;;;;;10.37;8.33;;;;;;;;;;4939873;28;20439;-71
2021/10/02 01:22:14;;;;;;;9.80;8.53;;;;;;;;;;4936359;28;20435;-71
2021/10/02 01:24:55;;;;;;;10.60;8.90;;;;;;;;;;4943913;28;20484;-71
2021/10/02 01:27:40;;;;;;;16.70;8.53;;;;;;;;;;4939186;28;20474;-71
2021/10/02 01:30:11;;;;;;;10.67;9.57;;;;;;;;;;4935129;28;20436;-71
2021/10/02 01:32:45;;;;;;;10.00;8.90;;;;;;;;;;4941551;28;20440;-71
2021/10/02 01:48:57;;;;;;;14.23;9.90;;;;;;;;;;4938794;28;20967;-71
2021/10/02 01:51:22;;;;;;;16.93;9.03;;;;;;;;;;4935092;28;20440;-71
2021/10/02 01:53:48;;;;;;;18.10;8.93;;;;;;;;;;4936611;28;20434;-71
2021/10/02 01:56:15;;;;;;;25.60;10.50;;;;;;;;;;4935730;28;20210;-71
2021/10/02 01:58:40;;;;;;;27.07;10.53;;;;;;;;;;4938019;28;20526;-71
2021/10/02 02:01:06;;;;;;;26.20;10.00;;;;;;;;;;4934499;28;20455;-71
2021/10/02 02:03:33;;;;;;;21.77;10.13;;;;;;;;;;4936753;28;20183;-71
2021/10/02 02:05:59;;;;;;;19.30;10.87;;;;;;;;;;4939563;28;20301;-71
2021/10/02 02:08:26;;;;;;;16.97;9.70;;;;;;;;;;4934936;28;20481;-70
2021/10/02 02:10:52;;;;;;;13.03;11.00;;;;;;;;;;4937892;28;20441;-71
2021/10/02 02:13:18;;;;;;;13.63;10.70;;;;;;;;;;4935835;28;20534;-71
2021/10/02 02:15:44;;;;;;;12.43;10.30;;;;;;;;;;4938277;28;20562;-71
2021/10/02 02:18:17;;;;;;;11.17;10.03;;;;;;;;;;4934345;28;20445;-71
2021/10/02 02:20:44;;;;;;;15.97;11.10;;;;;;;;;;4939085;28;20812;-71
2021/10/02 02:23:10;;;;;;;20.23;11.97;;;;;;;;;;4939655;28;20699;-71
2021/10/02 02:25:36;;;;;;;11.70;10.50;;;;;;;;;;4940489;28;20901;-71
2021/10/02 02:28:03;;;;;;;13.40;11.40;;;;;;;;;;4937775;28;20490;-71
2021/10/02 02:30:29;;;;;;;12.23;11.03;;;;;;;;;;4935145;28;20430;-71
2021/10/02 02:32:54;;;;;;;15.83;11.90;;;;;;;;;;4938466;28;20432;-70
2021/10/02 02:35:20;;;;;;;17.30;12.53;;;;;;;;;;4937147;28;20222;-70
2021/10/02 02:37:45;;;;;;;12.00;10.80;;;;;;;;;;4941084;28;20190;-71
2021/10/02 02:40:11;;;;;;;14.57;10.93;;;;;;;;;;4935471;28;20799;-71
2021/10/02 02:42:37;;;;;;;12.40;11.20;;;;;;;;;;4931767;28;20230;-71
2021/10/02 02:45:02;;;;;;;18.73;11.10;;;;;;;;;;4940328;28;20234;-71
2021/10/02 02:47:30;;;;;;;13.63;12.17;;;;;;;;;;4938593;28;20510;-71
2021/10/02 02:49:55;;;;;;;11.90;10.53;;;;;;;;;;4937704;28;20187;-71
2021/10/02 02:52:23;;;;;;;14.43;11.73;;;;;;;;;;4936169;28;20479;-71
2021/10/02 02:55:07;;;;;;;11.80;10.60;;;;;;;;;;4939060;28;20731;-71
2021/10/02 02:57:38;;;;;;;16.37;11.10;;;;;;;;;;4943589;28;20825;-71
2021/10/02 03:00:15;;;;;;;12.70;11.10;;;;;;;;;;4934448;28;20433;-71
2021/10/02 03:02:50;;;;;;;13.47;12.10;;;;;;;;;;4938504;28;20561;-71
2021/10/02 03:05:16;;;;;;;15.20;11.77;;;;;;;;;;4941796;28;20554;-71
2021/10/02 03:07:44;;;;;;;15.13;12.87;;;;;;;;;;4937305;28;20561;-71
2021/10/02 03:10:11;;;;;;;13.87;11.53;;;;;;;;;;4939030;28;20250;-71
2021/10/02 03:12:37;;;;;;;15.90;12.10;;;;;;;;;;4940466;28;20906;-71
2021/10/02 03:15:04;;;;;;;14.90;13.17;;;;;;;;;;4938198;28;20460;-71
2021/10/02 03:17:30;;;;;;;13.97;11.60;;;;;;;;;;4936881;28;20443;-71
2021/10/02 03:19:56;;;;;;;15.27;13.67;;;;;;;;;;4936967;28;20470;-70
2021/10/02 03:22:27;;;;;;;15.07;12.77;;;;;;;;;;4936618;28;20447;-71
2021/10/02 03:24:52;;;;;;;15.10;11.97;;;;;;;;;;4937057;28;20451;-71
2021/10/02 03:27:18;;;;;;;12.23;11.13;;;;;;;;;;4937112;28;20478;-71
2021/10/02 03:29:43;;;;;;;15.33;12.80;;;;;;;;;;4942243;28;20180;-71
2021/10/02 03:32:09;;;;;;;13.13;11.80;;;;;;;;;;4942067;28;20667;-71
2021/10/02 03:34:35;;;;;;;16.60;13.40;;;;;;;;;;4942462;28;20222;-70
2021/10/02 03:37:00;;;;;;;16.73;12.93;;;;;;;;;;4939262;28;20242;-70
2021/10/02 03:39:26;;;;;;;14.27;12.90;;;;;;;;;;4944675;29;20450;-70
2021/10/02 03:42:03;;;;;;;13.17;11.40;;;;;;;;;;4941334;28;20186;-71
2021/10/02 03:44:28;;;;;;;16.77;13.50;;;;;;;;;;4945718;28;20342;-71
2021/10/02 03:46:54;;;;;;;13.33;12.03;;;;;;;;;;4940175;28;20901;-71
2021/10/02 03:49:19;;;;;;;14.77;12.80;;;;;;;;;;4940658;28;20230;-70
2021/10/02 03:51:46;;;;;;;14.47;12.97;;;;;;;;;;4941941;28;20183;-71
2021/10/02 03:54:11;;;;;;;14.37;12.90;;;;;;;;;;4938284;28;20286;-71
2021/10/02 03:56:36;;;;;;;18.50;13.10;;;;;;;;;;4938399;28;20434;-71
2021/10/02 03:59:02;;;;;;;16.30;14.27;;;;;;;;;;4941013;28;20266;-71
2021/10/02 04:01:27;;;;;;;17.40;14.60;;;;;;;;;;4941259;28;20219;-71
2021/10/02 04:03:52;;;;;;;15.73;14.10;;;;;;;;;;4933469;28;20184;-70
2021/10/02 04:06:17;;;;;;;15.83;14.13;;;;;;;;;;4940238;28;20774;-71
2021/10/02 04:08:43;;;;;;;15.97;14.13;;;;;;;;;;4936649;28;20261;-71
2021/10/02 04:11:08;;;;;;;16.33;13.90;;;;;;;;;;4942698;28;21215;-70
2021/10/02 04:13:33;;;;;;;14.33;12.90;;;;;;;;;;4942593;28;20241;-71
2021/10/02 04:15:58;;;;;;;15.63;13.47;;;;;;;;;;4940369;28;20258;-70
2021/10/02 04:18:23;;;;;;;15.70;14.20;;;;;;;;;;4943425;28;20210;-71
2021/10/02 04:20:49;;;;;;;13.53;12.17;;;;;;;;;;4939600;29;20222;-70
2021/10/02 04:23:14;;;;;;;14.73;12.90;;;;;;;;;;4935440;28;20195;-71
2021/10/02 04:25:39;;;;;;;14.80;13.40;;;;;;;;;;4939442;28;20203;-71
2021/10/02 04:28:04;;;;;;;14.40;12.93;;;;;;;;;;4941159;28;20738;-71
2021/10/02 04:30:29;;;;;;;14.90;13.40;;;;;;;;;;4939300;28;20648;-71
2021/10/02 04:32:55;;;;;;;17.30;13.77;;;;;;;;;;4938296;28;20193;-71
2021/10/02 04:35:20;;;;;;;17.07;12.70;;;;;;;;;;4940692;28;20318;-71
2021/10/02 04:37:45;;;;;;;15.13;13.63;;;;;;;;;;4939312;28;20208;-71
2021/10/02 04:40:11;;;;;;;14.87;13.33;;;;;;;;;;4938707;28;21086;-71
2021/10/02 04:42:36;;;;;;;14.33;12.80;;;;;;;;;;4939552;28;20187;-70
2021/10/02 04:45:02;;;;;;;17.93;12.67;;;;;;;;;;4939844;28;22030;-71
2021/10/02 04:47:27;;;;;;;15.47;14.03;;;;;;;;;;4940021;28;20710;-71
2021/10/02 04:49:53;;;;;;;16.47;14.77;;;;;;;;;;4939747;28;20845;-71
2021/10/02 04:52:18;;;;;;;17.13;13.97;;;;;;;;;;4939896;28;20196;-71
2021/10/02 04:54:43;;;;;;;17.53;13.50;;;;;;;;;;4938502;28;20707;-72
2021/10/02 04:57:08;;;;;;;19.27;14.67;;;;;;;;;;4942339;28;20239;-71
2021/10/02 04:59:34;;;;;;;16.57;14.30;;;;;;;;;;4936873;28;20195;-71
2021/10/02 05:01:59;;;;;;;14.13;12.90;;;;;;;;;;4941774;28;20191;-70
2021/10/02 05:04:24;;;;;;;16.37;14.47;;;;;;;;;;4939640;28;20202;-70
2021/10/02 05:06:49;;;;;;;14.57;13.17;;;;;;;;;;4939965;28;20266;-70
2021/10/02 05:09:15;;;;;;;16.40;14.20;;;;;;;;;;4938444;28;20259;-70
2021/10/02 05:11:40;;;;;;;15.80;13.43;;;;;;;;;;4940138;29;20199;-71
2021/10/02 05:14:05;;;;;;;21.07;13.87;;;;;;;;;;4941870;28;20214;-71
2021/10/02 05:16:30;;;;;;;18.20;13.67;;;;;;;;;;4934304;28;20179;-71
2021/10/02 05:18:56;;;;;;;16.47;14.50;;;;;;;;;;4937885;28;20275;-71
2021/10/02 05:21:21;;;;;;;16.43;14.70;;;;;;;;;;4940680;28;20270;-70
2021/10/02 05:23:46;;;;;;;15.30;13.90;;;;;;;;;;4933803;28;20183;-71
2021/10/02 05:26:12;;;;;;;16.37;13.80;;;;;;;;;;4935311;28;20182;-71
2021/10/02 05:28:37;;;;;;;16.10;14.40;;;;;;;;;;4936759;28;20203;-71
2021/10/02 05:31:02;;;;;;;15.40;13.47;;;;;;;;;;4938856;28;20180;-72
2021/10/02 05:33:27;;;;;;;14.57;13.07;;;;;;;;;;4932053;28;20212;-72
2021/10/02 05:35:53;;;;;;;14.90;13.50;;;;;;;;;;4932859;28;20218;-72
2021/10/02 05:38:20;;;;;;;14.83;12.97;;;;;;;;;;4935017;28;20671;-71
2021/10/02 05:40:46;;;;;;;16.23;14.57;;;;;;;;;;4936372;28;20184;-72
2021/10/02 05:43:11;;;;;;;19.20;15.90;;;;;;;;;;4940195;28;20438;-73
2021/10/02 05:45:36;;;;;;;17.23;14.30;;;;;;;;;;4961761;23;20235;-72
2021/10/02 05:48:01;;;;;;;16.30;14.60;;;;;;;;;;4960530;28;20650;-72
2021/10/02 05:50:27;;;;;;;17.00;15.37;;;;;;;;;;4959212;28;20185;-71
2021/10/02 05:52:52;;;;;;;16.37;14.60;;;;;;;;;;4962904;28;20206;-72
2021/10/02 05:55:17;;;;;;;16.07;14.33;;;;;;;;;;4958558;28;20578;-72
2021/10/02 05:57:43;;;;;;;21.43;15.00;;;;;;;;;;4956664;28;20187;-71
2021/10/02 06:00:08;;;;;;;16.07;14.40;;;;;;;;;;4958022;28;20211;-71
2021/10/02 06:02:34;;;;;;;16.87;14.90;;;;;;;;;;4957444;28;20217;-71
2021/10/02 06:04:59;;;;;;;15.97;14.47;;;;;;;;;;4958977;28;20207;-71
2021/10/02 06:07:24;;;;;;;18.50;15.27;;;;;;;;;;4957849;28;20285;-71
2021/10/02 06:09:51;;;;;;;14.43;13.10;;;;;;;;;;4958001;28;20178;-71
2021/10/02 06:12:17;;;;;;;16.47;14.83;;;;;;;;;;4958290;28;20190;-71
2021/10/02 06:14:42;;;;;;;16.83;13.93;;;;;;;;;;4955668;28;20820;-71
2021/10/02 06:17:07;;;;;;;17.10;15.40;;;;;;;;;;4957033;28;20179;-70
2021/10/02 06:19:33;;;;;;;14.57;13.23;;;;;;;;;;4960082;28;20643;-71
2021/10/02 06:21:59;;;;;;;18.33;14.30;;;;;;;;;;4959816;28;20565;-71
2021/10/02 06:24:25;;;;;;;16.00;14.50;;;;;;;;;;4960173;28;20242;-71
2021/10/02 06:26:50;;;;;;;18.23;15.03;;;;;;;;;;4955894;28;20430;-70
2021/10/02 06:29:15;;;;;;;17.23;15.43;;;;;;;;;;4955941;28;20188;-70
2021/10/02 06:31:40;;;;;;;17.40;15.63;;;;;;;;;;4959453;28;20183;-71
2021/10/02 06:34:06;;;;;;;21.23;15.50;;;;;;;;;;4963209;28;20202;-70
2021/10/02 06:36:31;;;;;;;19.50;17.37;;;;;;;;;;4958215;28;20218;-71
2021/10/02 06:38:56;;;;;;;18.47;16.47;;;;;;;;;;4955139;28;20237;-71
2021/10/02 06:41:23;;;;;;;16.53;14.80;;;;;;;;;;4955724;28;20186;-71
2021/10/02 06:43:48;;;;;;;17.33;15.63;;;;;;;;;;4961251;28;20651;-71
2021/10/02 06:46:13;;;;;;;18.50;15.50;;;;;;;;;;4957628;28;20457;-71
2021/10/02 06:48:38;;;;;;;16.67;14.90;;;;;;;;;;4956092;28;20203;-71
2021/10/02 06:51:04;;;;;;;17.47;15.70;;;;;;;;;;4962513;28;20703;-71
2021/10/02 06:53:29;;;;;;;18.77;15.57;;;;;;;;;;4959448;28;20560;-72
2021/10/02 06:55:54;;;;;;;19.13;15.53;;;;;;;;;;4960556;28;20195;-71
2021/10/02 06:58:19;;;;;;;19.10;15.90;;;;;;;;;;4960298;28;20273;-71
2021/10/02 07:00:45;;;;;;;14.77;13.40;;;;;;;;;;4959830;28;20230;-71
2021/10/02 07:03:10;;;;;;;15.40;13.77;;;;;;;;;;4962597;28;20584;-71
2021/10/02 07:05:35;;;;;;;16.80;15.10;;;;;;;;;;4964890;28;20213;-71
2021/10/02 07:08:00;;;;;;;15.90;14.43;;;;;;;;;;4966565;28;20194;-71
2021/10/02 07:10:26;;;;;;;16.13;14.43;;;;;;;;;;4965392;28;20179;-71
2021/10/02 07:12:53;;;;;;;14.90;13.40;;;;;;;;;;4965924;28;20186;-71
2021/10/02 07:15:18;;;;;;;15.93;14.23;;;;;;;;;;4969610;28;20719;-71
2021/10/02 07:17:46;;;;;;;15.27;13.77;;;;;;;;;;4963994;28;20536;-71
2021/10/02 07:20:12;;;;;;;14.90;13.33;;;;;;;;;;4965070;28;20178;-71
2021/10/02 07:22:40;;;;;;;16.60;12.80;;;;;;;;;;4964407;28;20426;-71
2021/10/02 07:25:06;;;;;;;13.80;11.67;;;;;;;;;;4967104;28;20455;-71
2021/10/02 07:27:32;;;;;;;15.20;11.93;;;;;;;;;;4959466;28;20461;-71
2021/10/02 07:29:57;;;;;;;11.73;10.57;;;;;;;;;;4966494;28;20437;-72
2021/10/02 07:32:23;;;;;;;13.10;11.80;;;;;;;;;;4960415;28;20274;-71
2021/10/02 07:34:49;;;;;;;13.90;11.90;;;;;;;;;;4963747;28;20686;-71
2021/10/02 07:37:14;;;;;;;11.43;10.43;;;;;;;;;;4960702;28;20450;-72
2021/10/02 07:39:39;;;;;;;11.60;10.50;;;;;;;;;;4967570;28;20221;-71
2021/10/02 07:42:05;;;;;;;12.30;9.90;;;;;;;;;;4961891;28;20239;-72
2021/10/02 07:44:31;;;;;;;9.13;8.17;;;;;;;;;;4965238;28;20692;-71
2021/10/02 07:46:57;;;;;;;9.17;8.27;;;;;;;;;;4964534;28;20190;-71
2021/10/02 07:49:23;;;;;;;9.30;7.83;;;;;;;;;;4963043;28;20959;-72
2021/10/02 07:51:48;;;;;;;11.60;8.10;;;;;;;;;;4967507;28;20210;-71
2021/10/02 07:54:14;;;;;;;7.90;7.10;;;;;;;;;;4963745;28;20452;-71
2021/10/02 07:56:40;;;;;;;9.47;8.50;;;;;;;;;;4964251;28;20183;-72
2021/10/02 07:59:06;;;;;;;9.33;8.43;;;;;;;;;;4962054;28;20645;-72
2021/10/02 08:01:32;;;;;;;10.00;7.67;;;;;;;;;;4959976;28;20241;-72
2021/10/02 08:03:57;;;;;;;9.50;8.57;;;;;;;;;;4967232;28;20462;-71
2021/10/02 08:06:22;;;;;;;8.20;7.43;;;;;;;;;;4961381;28;20195;-71
2021/10/02 08:08:48;;;;;;;10.50;8.10;;;;;;;;;;4958101;28;20235;-72
2021/10/02 08:11:14;;;;;;;8.20;7.30;;;;;;;;;;4962382;28;20573;-72
2021/10/02 08:13:39;;;;;;;9.13;8.00;;;;;;;;;;4954617;28;20469;-72
2021/10/02 08:16:06;;;;;;;8.90;7.87;;;;;;;;;;4961155;28;20191;-72
2021/10/02 08:18:37;;;;;;;7.07;6.37;;;;;;;;;;4961660;28;20187;-72
2021/10/02 08:21:03;;;;;;;9.70;7.47;;;;;;;;;;4964731;28;20432;-72
2021/10/02 08:23:28;;;;;;;7.10;6.40;;;;;;;;;;4960645;28;20435;-72
2021/10/02 08:25:53;;;;;;;7.10;6.40;;;;;;;;;;4961679;28;20643;-71
2021/10/02 08:28:20;;;;;;;9.77;8.30;;;;;;;;;;4964669;28;20218;-72
2021/10/02 08:30:46;;;;;;;7.83;6.80;;;;;;;;;;4963081;28;20194;-71
2021/10/02 08:33:12;;;;;;;10.43;8.47;;;;;;;;;;4964070;28;20474;-71
2021/10/02 08:35:38;;;;;;;9.80;8.47;;;;;;;;;;4959957;28;20473;-71
2021/10/02 08:38:03;;;;;;;10.63;9.60;;;;;;;;;;4965429;28;21343;-71
2021/10/02 08:40:28;;;;;;;13.73;11.80;;;;;;;;;;4965446;28;20200;-71
2021/10/02 08:42:54;;;;;;;14.83;13.33;;;;;;;;;;4962457;28;20183;-71
2021/10/02 08:45:20;;;;;;;15.53;13.90;;;;;;;;;;4961513;28;20218;-70
2021/10/02 08:47:45;;;;;;;15.73;14.03;;;;;;;;;;4964228;28;20252;-71
2021/10/02 08:50:13;;;;;;;14.33;12.83;;;;;;;;;;4961069;28;20553;-71
2021/10/02 08:52:39;;;;;;;15.17;12.70;;;;;;;;;;4963452;28;20208;-70
2021/10/02 08:55:05;;;;;;;16.23;14.57;;;;;;;;;;4961993;28;20975;-70
2021/10/02 08:57:32;;;;;;;18.60;14.83;;;;;;;;;;4962975;28;20652;-70
2021/10/02 08:59:58;;;;;;;15.67;14.13;;;;;;;;;;4962001;28;20226;-71
2021/10/02 09:02:25;;;;;;;16.83;15.03;;;;;;;;;;4963976;28;20598;-71
2021/10/02 09:04:51;;;;;;;19.13;15.10;;;;;;;;;;4960209;28;20210;-71
2021/10/02 09:07:16;;;;;;;17.93;15.23;;;;;;;;;;4961378;28;20465;-71
2021/10/02 09:09:43;;;;;;;19.40;15.60;;;;;;;;;;4964019;28;20426;-71
2021/10/02 09:12:08;;;;;;;20.17;16.80;;;;;;;;;;4960574;28;20175;-71
2021/10/02 09:14:34;;;;;;;26.33;18.17;;;;;;;;;;4960736;28;21190;-71
2021/10/02 09:17:00;;;;;;;23.17;17.13;;;;;;;;;;4962412;28;20246;-71
2021/10/02 09:19:25;;;;;;;23.60;18.30;;;;;;;;;;4963612;28;20186;-71
2021/10/02 09:21:55;;;;;;;21.30;17.30;;;;;;;;;;4964857;28;20179;-71
2021/10/02 09:24:31;;;;;;;26.27;18.20;;;;;;;;;;4961643;28;20284;-71
2021/10/02 09:26:56;;;;;;;19.27;16.53;;;;;;;;;;4961358;28;20435;-71
2021/10/02 09:29:40;;;;;;;19.10;16.93;;;;;;;;;;4961728;28;20430;-71
2021/10/02 09:32:06;;;;;;;20.10;17.77;;;;;;;;;;4957705;28;20845;-71
2021/10/02 09:34:41;;;;;;;20.70;17.27;;;;;;;;;;4959751;28;20469;-71
2021/10/02 09:37:14;;;;;;;19.00;17.13;;;;;;;;;;4957428;28;20425;-71
2021/10/02 09:39:42;;;;;;;20.83;17.70;;;;;;;;;;4968126;28;20434;-71
2021/10/02 09:42:17;;;;;;;24.73;17.90;;;;;;;;;;4961885;28;20434;-71
2021/10/02 09:44:44;;;;;;;21.07;16.73;;;;;;;;;;4965059;28;20476;-71
2021/10/02 09:47:18;;;;;;;19.40;17.20;;;;;;;;;;4958054;28;20509;-71
2021/10/02 09:49:44;;;;;;;21.53;17.20;;;;;;;;;;4965788;28;20268;-70
2021/10/02 09:52:26;;;;;;;24.20;19.00;;;;;;;;;;4959765;28;20442;-70
2021/10/02 09:54:52;;;;;;;19.63;17.53;;;;;;;;;;4963099;28;20549;-71
2021/10/02 09:57:17;;;;;;;21.27;17.43;;;;;;;;;;4960517;28;20533;-70
2021/10/02 09:59:42;;;;;;;21.00;18.73;;;;;;;;;;4966949;28;20199;-71
2021/10/02 10:02:29;;;;;;;18.33;16.40;;;;;;;;;;4960960;28;20183;-72
2021/10/02 10:04:55;;;;;;;22.83;18.33;;;;;;;;;;4958698;28;20231;-71
2021/10/02 10:07:21;;;;;;;25.63;18.87;;;;;;;;;;4963318;28;20557;-71
2021/10/02 10:10:05;;;;;;;23.73;19.00;;;;;;;;;;4961467;28;21031;-71
2021/10/02 10:12:30;;;;;;;26.80;18.70;;;;;;;;;;4963241;28;20974;-72
2021/10/02 10:14:56;;;;;;;23.07;18.60;;;;;;;;;;4963658;28;20442;-71
2021/10/02 10:17:21;;;;;;;21.63;16.67;;;;;;;;;;4958436;28;20592;-70
2021/10/02 10:19:47;;;;;;;19.30;16.77;;;;;;;;;;4959483;28;20445;-71
2021/10/02 10:22:18;;;;;;;21.10;15.77;;;;;;;;;;4961720;28;20194;-70
2021/10/02 10:24:54;;;;;;;19.70;15.30;;;;;;;;;;4962779;28;20229;-71
2021/10/02 10:27:29;;;;;;;15.23;13.30;;;;;;;;;;4959964;28;20527;-71
2021/10/02 10:30:03;;;;;;;14.93;13.03;;;;;;;;;;4963253;28;20492;-70
2021/10/02 10:32:28;;;;;;;17.70;10.63;;;;;;;;;;4964922;28;20485;-71
2021/10/02 10:34:53;;;;;;;17.60;10.83;;;;;;;;;;4959240;28;20453;-71
2021/10/02 10:37:19;;;;;;;12.80;10.17;;;;;;;;;;4957539;28;20197;-71
2021/10/02 10:39:44;;;;;;;16.27;10.10;;;;;;;;;;4956293;28;20182;-70
2021/10/02 10:42:09;;;;;;;14.30;9.60;;;;;;;;;;4952881;28;20233;-70
2021/10/02 10:44:35;;;;;;;14.43;11.00;;;;;;;;;;4958305;28;20233;-70
2021/10/02 10:47:01;;;;;;;14.23;10.20;;;;;;;;;;4955414;28;20182;-70
2021/10/02 10:49:27;;;;;;;13.50;10.60;;;;;;;;;;4956019;28;20201;-70
2021/10/02 10:51:56;;;;;;;14.40;11.17;;;;;;;;;;4954329;28;20457;-70
2021/10/02 10:54:22;;;;;;;17.10;11.87;;;;;;;;;;4954866;28;20512;-70
2021/10/02 10:56:49;;;;;;;14.50;11.43;;;;;;;;;;4956428;28;20445;-70
2021/10/02 10:59:18;;;;;;;17.53;10.43;;;;;;;;;;4953068;28;20194;-70
2021/10/02 11:01:44;;;;;;;12.03;10.27;;;;;;;;;;4961088;28;20521;-71
2021/10/02 11:04:32;;;;;;;13.83;9.70;;;;;;;;;;4954568;28;20552;-72
2021/10/02 11:06:59;;;;;;;13.50;8.63;;;;;;;;;;4957282;28;20183;-71
2021/10/02 11:09:35;;;;;;;11.27;9.03;;;;;;;;;;4961366;28;20496;-70
2021/10/02 11:12:00;;;;;;;10.67;7.60;;;;;;;;;;4961727;28;21052;-70
2021/10/02 11:14:44;;;;;;;15.40;9.50;;;;;;;;;;4960140;28;20455;-70
2021/10/02 11:17:09;;;;;;;10.93;8.07;;;;;;;;;;4959447;28;20172;-70
2021/10/02 11:19:35;;;;;;;11.03;8.47;;;;;;;;;;4961419;28;20923;-70
2021/10/02 11:22:00;;;;;;;14.07;9.40;;;;;;;;;;4958067;28;20175;-70
2021/10/02 11:24:35;;;;;;;10.87;8.40;;;;;;;;;;4960268;28;20203;-70
2021/10/02 11:27:01;;;;;;;10.77;8.20;;;;;;;;;;4961918;28;20178;-70
2021/10/02 11:29:27;;;;;;;10.40;7.27;;;;;;;;;;4956444;28;20793;-70
2021/10/02 11:32:11;;;;;;;10.37;6.37;;;;;;;;;;4959614;28;20213;-71
2021/10/02 11:34:38;;;;;;;8.07;5.80;;;;;;;;;;4958778;28;20549;-70
2021/10/02 11:37:08;;;;;;;9.97;6.97;;;;;;;;;;4962038;28;20445;-71
2021/10/02 11:39:34;;;;;;;12.40;6.00;;;;;;;;;;4961036;28;20441;-70
2021/10/02 11:42:09;;;;;;;9.00;5.90;;;;;;;;;;4953256;28;20441;-71
2021/10/02 11:44:35;;;;;;;10.60;6.40;;;;;;;;;;4952205;28;20659;-71
2021/10/02 11:47:19;;;;;;;11.53;6.73;;;;;;;;;;4949722;28;20542;-70
2021/10/02 11:49:44;;;;;;;10.30;6.93;;;;;;;;;;4954162;28;20430;-70
2021/10/02 11:52:11;;;;;;;10.03;5.83;;;;;;;;;;4967775;28;21312;-69
2021/10/02 11:54:37;;;;;;;9.87;4.90;;;;;;;;;;4955208;28;20223;-71
2021/10/02 11:57:07;;;;;;;8.60;5.13;;;;;;;;;;4960417;28;20984;-71
2021/10/02 11:59:32;;;;;;;7.23;4.40;;;;;;;;;;4958029;28;20178;-71
2021/10/02 12:02:02;;;;;;;7.20;4.50;;;;;;;;;;4960974;28;20445;-71
2021/10/02 12:04:27;;;;;;;5.10;3.13;;;;;;;;;;4952928;28;20896;-71
2021/10/02 12:06:52;;;;;;;4.90;2.53;;;;;;;;;;4960398;28;20499;-71
2021/10/02 12:09:18;;;;;;;4.93;2.90;;;;;;;;;;4959614;28;20183;-71
2021/10/02 12:11:47;;;;;;;6.37;2.70;;;;;;;;;;4960318;28;20183;-71
2021/10/02 12:14:14;;;;;;;3.50;1.97;;;;;;;;;;4967027;28;20763;-71
2021/10/02 12:16:39;;;;;;;4.50;1.97;;;;;;;;;;4962383;28;20514;-71
2021/10/02 12:19:09;;;;;;;4.60;2.30;;;;;;;;;;4963251;28;20532;-71
2021/10/02 12:21:34;;;;;;;2.33;1.50;;;;;;;;;;4960863;28;20293;-71
2021/10/02 12:24:02;;;;;;;5.57;2.07;;;;;;;;;;4961234;28;21034;-71
2021/10/02 12:26:28;;;;;;;3.37;1.80;;;;;;;;;;4963101;28;20194;-71
2021/10/02 12:28:58;;;;;;;2.90;1.70;;;;;;;;;;4957732;28;21049;-71
2021/10/02 12:31:38;;;;;;;3.53;1.80;;;;;;;;;;4963891;28;20292;-71
2021/10/02 12:34:11;;;;;;;2.60;1.87;;;;;;;;;;4963594;28;20962;-71
2021/10/02 12:36:40;;;;;;;2.27;1.47;;;;;;;;;;4963852;28;20889;-71
2021/10/02 12:39:06;;;;;;;5.13;1.70;;;;;;;;;;4963849;28;20429;-71
2021/10/02 12:41:39;;;;;;;6.00;1.80;;;;;;;;;;4964023;28;20957;-71
2021/10/02 12:44:04;;;;;;;4.00;1.67;;;;;;;;;;4964309;28;20706;-70
2021/10/02 12:46:29;;;;;;;6.47;2.37;;;;;;;;;;4964377;28;20523;-71
2021/10/02 12:48:55;;;;;;;3.60;1.90;;;;;;;;;;4963241;28;20207;-71
2021/10/02 12:51:20;;;;;;;2.80;1.53;;;;;;;;;;4964454;28;20175;-71
2021/10/02 12:53:45;;;;;;;6.07;1.80;;;;;;;;;;4963455;28;20698;-70
2021/10/02 12:56:17;;;;;;;4.70;1.80;;;;;;;;;;4969006;28;20579;-71
2021/10/02 12:58:43;;;;;;;3.73;1.50;;;;;;;;;;4963459;28;20183;-71
2021/10/02 13:01:08;;;;;;;2.33;1.53;;;;;;;;;;4960979;28;20434;-71
2021/10/02 13:03:37;;;;;;;5.10;1.70;;;;;;;;;;4961395;28;20182;-71
2021/10/02 13:06:03;;;;;;;5.97;1.70;;;;;;;;;;4961723;28;20183;-71
2021/10/02 13:08:28;;;;;;;2.97;2.03;;;;;;;;;;4960942;28;20476;-71
2021/10/02 13:10:53;;;;;;;4.67;1.63;;;;;;;;;;4956580;28;20301;-72
2021/10/02 13:13:20;;;;;;;3.00;1.30;;;;;;;;;;4951820;28;20183;-71
2021/10/02 13:15:50;;;;;;;6.87;2.27;;;;;;;;;;4952372;28;20285;-71
2021/10/02 13:18:17;;;;;;;4.90;1.90;;;;;;;;;;4958929;28;20429;-72
2021/10/02 13:20:42;;;;;;;2.90;1.63;;;;;;;;;;4956306;28;20427;-71
2021/10/02 13:23:12;;;;;;;5.60;2.17;;;;;;;;;;4955970;28;20801;-72
2021/10/02 13:25:39;;;;;;;2.42;1.70;;;;;;;;;;4947090;28;20425;-71
2021/10/02 13:28:04;;;;;;;3.13;1.60;;;;;;;;;;4949967;28;20707;-71
2021/10/02 13:30:30;;;;;;;3.17;1.60;;;;;;;;;;4948196;28;20429;-71
2021/10/02 13:32:59;;;;;;;4.43;1.67;;;;;;;;;;4948764;28;20277;-71
2021/10/02 13:35:25;;;;;;;3.70;1.70;;;;;;;;;;4945805;28;20521;-71
2021/10/02 13:37:50;;;;;;;4.73;1.77;;;;;;;;;;4948610;28;20466;-70
2021/10/02 13:40:45;;;;;;;7.30;1.90;;;;;;;;;;4950300;28;20529;-72
2021/10/02 13:43:11;;;;;;;5.03;1.87;;;;;;;;;;4947095;28;20317;-71
2021/10/02 13:45:41;;;;;;;4.30;1.60;;;;;;;;;;4951234;28;20825;-71
2021/10/02 13:48:08;;;;;;;5.77;1.63;;;;;;;;;;4957064;28;20544;-71
2021/10/02 13:50:34;;;;;;;3.40;1.60;;;;;;;;;;4955819;28;20442;-71
2021/10/02 13:53:00;;;;;;;4.33;1.70;;;;;;;;;;4956098;28;20795;-71
2021/10/02 13:55:25;;;;;;;5.30;1.70;;;;;;;;;;4954003;28;20438;-71
2021/10/02 13:57:51;;;;;;;5.90;1.80;;;;;;;;;;4951908;28;20192;-71
2021/10/02 14:00:16;;;;;;;4.10;2.17;;;;;;;;;;4953733;28;20186;-70
2021/10/02 14:02:42;;;;;;;3.03;1.73;;;;;;;;;;4953506;28;20193;-71
2021/10/02 14:05:07;;;;;;;3.80;1.80;;;;;;;;;;4955673;28;20199;-71
2021/10/02 14:07:33;;;;;;;2.87;1.57;;;;;;;;;;4958226;28;20211;-71
2021/10/02 14:09:58;;;;;;;4.00;2.20;;;;;;;;;;4956521;28;20269;-71
2021/10/02 14:12:23;;;;;;;4.40;2.00;;;;;;;;;;4959615;28;20418;-70
2021/10/02 14:14:48;;;;;;;6.53;1.90;;;;;;;;;;4956054;28;20203;-73
2021/10/02 14:17:13;;;;;;;5.67;2.07;;;;;;;;;;4956220;28;20904;-71
2021/10/02 14:19:39;;;;;;;8.60;2.10;;;;;;;;;;4957655;28;20175;-72
2021/10/02 14:22:04;;;;;;;6.20;2.57;;;;;;;;;;4955766;28;20210;-73
2021/10/02 14:24:30;;;;;;;6.77;2.47;;;;;;;;;;4955853;28;20199;-73
2021/10/02 14:26:55;;;;;;;5.27;1.97;;;;;;;;;;4957580;28;20237;-72
2021/10/02 14:29:20;;;;;;;5.23;2.07;;;;;;;;;;4958055;28;20679;-71
2021/10/02 14:31:45;;;;;;;6.90;2.20;;;;;;;;;;4954354;28;20178;-71
2021/10/02 14:34:15;;;;;;;3.17;1.97;;;;;;;;;;4952249;28;20234;-72
2021/10/02 14:36:41;;;;;;;9.80;2.30;;;;;;;;;;4950580;28;20568;-72
2021/10/02 14:39:06;;;;;;;8.47;2.53;;;;;;;;;;4957230;28;20454;-71
2021/10/02 14:41:32;;;;;;;4.13;3.00;;;;;;;;;;4956075;28;20189;-73
2021/10/02 14:43:57;;;;;;;6.67;2.43;;;;;;;;;;4957266;28;20213;-72
2021/10/02 14:46:23;;;;;;;7.43;2.70;;;;;;;;;;4962603;28;20435;-71
2021/10/02 14:48:49;;;;;;;3.83;2.00;;;;;;;;;;4955995;28;20214;-70
2021/10/02 14:51:14;;;;;;;4.87;2.10;;;;;;;;;;4951305;28;20454;-70
2021/10/02 14:53:41;;;;;;;3.90;1.97;;;;;;;;;;4955048;28;20730;-71
2021/10/02 14:56:07;;;;;;;7.80;1.50;;;;;;;;;;4956197;28;20295;-72
2021/10/02 14:58:33;;;;;;;3.90;1.90;;;;;;;;;;4950668;28;20450;-72
2021/10/02 15:00:58;;;;;;;5.17;1.73;;;;;;;;;;4961652;28;20734;-70
2021/10/02 15:03:23;;;;;;;2.80;1.57;;;;;;;;;;4959076;28;20466;-71
2021/10/02 15:05:50;;;;;;;2.60;1.73;;;;;;;;;;4955296;28;20683;-71
2021/10/02 15:08:16;;;;;;;3.27;1.67;;;;;;;;;;4952889;28;20637;-72
2021/10/02 15:10:42;;;;;;;3.10;2.00;;;;;;;;;;4956641;28;20840;-71
2021/10/02 15:13:07;;;;;;;2.87;1.60;;;;;;;;;;4957801;28;20470;-72
2021/10/02 15:15:33;;;;;;;5.07;2.30;;;;;;;;;;4955548;28;20281;-71
2021/10/02 15:17:58;;;;;;;5.70;2.10;;;;;;;;;;4956798;28;20694;-71
2021/10/02 15:20:23;;;;;;;3.67;1.80;;;;;;;;;;4957706;28;20199;-71
2021/10/02 15:22:50;;;;;;;4.30;2.67;;;;;;;;;;4951774;28;20206;-71
2021/10/02 15:25:16;;;;;;;4.20;2.40;;;;;;;;;;4963220;28;20734;-71